Airport ICAO


14:31 UTC

15°C

Overcast


An affordable passengers' Moving Map for your aircraft. Made for the iPad and the iPhone
More information here

LFMD Mandelieu


Cannes FRANCE   VFR


METAR LFMD 241400Z AUTO VRB01KT 9999 OVC054 15/09 Q1020 NOSIG 0h31min

TAF LFMD 241400Z 2415/2515 01005KT 9999 BKN040 BECMG 2512/2514 25010KT 0h31min





NOTAMS

OPEN